createdAt,value
2017-12-04T00:02:18.366Z,51.60
2017-12-04T00:04:46.157Z,51.60
2017-12-04T00:07:14.053Z,51.60
2017-12-04T00:09:43.596Z,51.50
2017-12-04T00:12:13.440Z,52.20
2017-12-04T00:14:42.636Z,51.50
2017-12-04T00:17:10.706Z,51.60
2017-12-04T00:19:38.674Z,51.60
2017-12-04T00:22:07.666Z,51.50
2017-12-04T00:24:35.633Z,51.50
2017-12-04T00:27:03.601Z,51.50
2017-12-04T00:29:31.571Z,51.40
2017-12-04T00:31:59.536Z,51.40
2017-12-04T00:34:27.403Z,51.40
2017-12-04T00:36:55.885Z,51.40
2017-12-04T00:39:23.746Z,51.30
2017-12-04T00:41:51.280Z,51.30
2017-12-04T00:44:23.433Z,52.00
2017-12-04T00:46:52.667Z,51.30
2017-12-04T00:49:20.189Z,51.30
2017-12-04T00:51:48.454Z,51.30
2017-12-04T00:54:15.977Z,51.30
2017-12-04T00:56:43.473Z,51.50
2017-12-04T00:59:11.806Z,51.40
2017-12-04T01:01:39.302Z,51.40
2017-12-04T01:04:06.816Z,51.40
2017-12-04T01:06:35.248Z,51.40
2017-12-04T01:09:03.541Z,51.50
2017-12-04T01:11:31.033Z,51.50
2017-12-04T01:13:59.321Z,51.60
2017-12-04T01:16:26.817Z,51.50
2017-12-04T01:18:54.345Z,51.60
2017-12-04T01:21:21.847Z,51.60
2017-12-04T01:23:49.346Z,51.60
2017-12-04T01:26:16.865Z,51.60
2017-12-04T01:28:45.333Z,51.60
2017-12-04T01:31:12.849Z,51.60
2017-12-04T01:33:40.717Z,51.80
2017-12-04T01:36:08.233Z,51.70
2017-12-04T01:38:35.726Z,51.80
2017-12-04T01:41:03.222Z,51.70
2017-12-04T01:43:31.519Z,51.70
2017-12-04T01:45:59.008Z,51.70
2017-12-04T01:48:28.475Z,51.70
2017-12-04T01:50:55.968Z,51.70
2017-12-04T01:53:23.476Z,51.70
2017-12-04T01:55:50.969Z,51.70
2017-12-04T01:58:18.489Z,51.80
2017-12-04T02:00:45.997Z,51.90
2017-12-04T02:03:13.490Z,52.40
2017-12-04T02:05:41.792Z,51.80
2017-12-04T02:08:09.289Z,51.80
2017-12-04T02:10:36.826Z,51.70
2017-12-04T02:13:05.264Z,51.70
2017-12-04T02:15:33.581Z,51.80
2017-12-04T02:18:02.020Z,51.70
2017-12-04T02:20:30.301Z,51.80
2017-12-04T02:22:57.812Z,51.70
2017-12-04T02:25:26.253Z,51.90
2017-12-04T02:27:53.801Z,51.80
2017-12-04T02:30:28.222Z,51.80
2017-12-04T02:32:57.725Z,51.80
2017-12-04T02:35:25.245Z,51.80
2017-12-04T02:37:54.257Z,51.90
2017-12-04T02:40:21.782Z,51.90
2017-12-04T02:42:49.277Z,51.80
2017-12-04T02:45:16.798Z,51.80
2017-12-04T02:47:44.297Z,51.70
2017-12-04T02:50:11.816Z,51.70
2017-12-04T02:52:39.313Z,51.60
2017-12-04T02:55:06.813Z,51.70
2017-12-04T02:57:34.330Z,51.80
2017-12-04T03:00:01.834Z,51.80
2017-12-04T03:02:29.353Z,51.70
2017-12-04T03:04:57.813Z,51.60
2017-12-04T03:07:25.329Z,51.70
2017-12-04T03:09:52.825Z,51.60
2017-12-04T03:12:20.348Z,51.70
2017-12-04T03:14:47.865Z,51.60
2017-12-04T03:17:15.357Z,51.60
2017-12-04T03:19:42.877Z,51.70
2017-12-04T03:22:11.321Z,51.60
2017-12-04T03:24:39.626Z,51.70
2017-12-04T03:27:07.121Z,51.70
2017-12-04T03:29:34.643Z,51.70
2017-12-04T03:32:02.146Z,51.60
2017-12-04T03:34:29.641Z,51.70
2017-12-04T03:36:57.173Z,51.60
2017-12-04T03:39:25.429Z,51.60
2017-12-04T03:41:52.946Z,51.60
2017-12-04T03:44:20.442Z,51.60
2017-12-04T03:46:47.962Z,51.60
2017-12-04T03:49:15.457Z,51.60
2017-12-04T03:51:42.957Z,51.50
2017-12-04T03:54:12.521Z,51.40
2017-12-04T03:56:39.981Z,51.50
2017-12-04T03:59:07.505Z,51.50
2017-12-04T04:01:35.004Z,51.40
2017-12-04T04:04:02.524Z,51.40
2017-12-04T04:06:30.026Z,51.40
2017-12-04T04:08:58.317Z,52.20
2017-12-04T04:11:25.833Z,51.50
2017-12-04T04:13:53.321Z,51.50
2017-12-04T04:16:23.581Z,51.50
2017-12-04T04:18:51.073Z,51.50
2017-12-04T04:21:18.601Z,51.40
2017-12-04T04:23:46.094Z,51.40
2017-12-04T04:26:13.580Z,51.40
2017-12-04T04:28:41.097Z,51.40
2017-12-04T04:31:08.598Z,51.30
2017-12-04T04:33:36.113Z,51.30
2017-12-04T04:36:03.610Z,51.30
2017-12-04T04:38:31.105Z,51.30
2017-12-04T04:40:58.621Z,51.20
2017-12-04T04:43:26.113Z,51.30
2017-12-04T04:45:53.633Z,51.30
2017-12-04T04:48:21.130Z,51.20
2017-12-04T04:50:48.620Z,51.30
2017-12-04T04:53:16.137Z,51.30
2017-12-04T04:55:43.636Z,51.30
2017-12-04T04:58:11.159Z,51.30
2017-12-04T05:00:38.649Z,51.30
2017-12-04T05:03:06.144Z,51.20
2017-12-04T05:05:34.620Z,51.70
2017-12-04T05:08:02.118Z,51.30
2017-12-04T05:10:29.636Z,51.20
2017-12-04T05:12:57.138Z,51.20
2017-12-04T05:15:24.635Z,51.20
2017-12-04T05:17:52.917Z,51.20
2017-12-04T05:20:20.414Z,51.30
2017-12-04T05:22:47.925Z,51.20
2017-12-04T05:25:16.405Z,51.20
2017-12-04T05:27:43.928Z,51.20
2017-12-04T05:30:11.434Z,51.20
2017-12-04T05:32:38.932Z,51.20
2017-12-04T05:35:06.449Z,51.20
2017-12-04T05:37:33.954Z,51.20
2017-12-04T05:40:01.477Z,51.40
2017-12-04T05:42:28.971Z,51.40
2017-12-04T05:44:57.416Z,51.30
2017-12-04T05:47:24.930Z,51.30
2017-12-04T05:49:53.188Z,51.50
2017-12-04T05:52:20.709Z,51.50
2017-12-04T05:54:48.209Z,51.40
2017-12-04T05:57:15.729Z,51.40
2017-12-04T05:59:43.225Z,51.00
2017-12-04T06:02:11.490Z,51.60
2017-12-04T06:04:39.009Z,51.50
2017-12-04T06:07:07.449Z,51.60
2017-12-04T06:09:35.733Z,51.60
2017-12-04T06:12:03.253Z,51.60
2017-12-04T06:14:31.700Z,51.60
2017-12-04T06:16:59.217Z,51.50
2017-12-04T06:19:28.416Z,51.50
2017-12-04T06:21:56.694Z,51.60
2017-12-04T06:24:24.193Z,51.60
2017-12-04T06:26:51.715Z,51.50
2017-12-04T06:29:19.209Z,51.50
2017-12-04T06:31:46.709Z,51.40
2017-12-04T06:34:14.993Z,52.20
2017-12-04T06:36:43.248Z,51.50
2017-12-04T06:39:10.765Z,51.50
2017-12-04T06:41:38.257Z,51.50
2017-12-04T06:44:05.750Z,51.40
2017-12-04T06:46:35.287Z,51.50
2017-12-04T06:49:02.786Z,51.50
2017-12-04T06:51:31.069Z,51.40
2017-12-04T06:53:59.357Z,51.40
2017-12-04T06:56:26.873Z,51.40
2017-12-04T06:58:54.378Z,51.50
2017-12-04T07:01:21.881Z,51.60
2017-12-04T07:03:51.333Z,51.60
2017-12-04T07:06:18.826Z,51.60
2017-12-04T07:08:46.345Z,51.60
2017-12-04T07:11:14.801Z,51.60
2017-12-04T07:13:43.061Z,52.10
2017-12-04T07:16:10.591Z,51.60
2017-12-04T07:18:38.093Z,51.60
2017-12-04T07:21:06.381Z,51.60
2017-12-04T07:23:34.837Z,51.60
2017-12-04T07:26:02.370Z,51.70
2017-12-04T07:28:29.865Z,51.70
2017-12-04T07:30:58.137Z,51.70
2017-12-04T07:33:26.424Z,51.70
2017-12-04T07:35:54.685Z,51.70
2017-12-04T07:38:22.994Z,51.70
2017-12-04T07:40:50.489Z,51.60
2017-12-04T07:43:18.005Z,51.70
2017-12-04T07:45:45.505Z,51.70
2017-12-04T07:48:12.994Z,51.70
2017-12-04T07:50:41.273Z,51.90
2017-12-04T07:53:09.529Z,51.80
2017-12-04T07:55:37.050Z,51.80
2017-12-04T07:58:04.548Z,51.80
2017-12-04T08:00:32.828Z,51.60
2017-12-04T08:03:01.093Z,51.60
2017-12-04T08:05:28.597Z,51.60
2017-12-04T08:07:56.113Z,51.60
2017-12-04T08:10:24.397Z,51.50
2017-12-04T08:12:52.653Z,51.40
2017-12-04T08:15:21.845Z,51.50
2017-12-04T08:17:49.336Z,51.40
2017-12-04T08:20:18.849Z,51.40
2017-12-04T08:22:46.344Z,51.30
2017-12-04T08:25:13.926Z,51.40
2017-12-04T08:27:41.523Z,51.80
2017-12-04T08:30:09.049Z,51.60
2017-12-04T08:32:37.321Z,52.60
2017-12-04T08:35:05.841Z,52.00
2017-12-04T08:37:33.345Z,51.50
2017-12-04T08:40:00.850Z,51.90
2017-12-04T08:42:28.384Z,51.80
2017-12-04T08:44:56.654Z,51.80
2017-12-04T08:47:24.955Z,51.70
2017-12-04T08:49:52.460Z,51.70
2017-12-04T08:52:19.987Z,51.70
2017-12-04T08:54:47.492Z,51.50
2017-12-04T08:57:15.021Z,51.70
2017-12-04T08:59:42.520Z,51.60
2017-12-04T09:02:10.812Z,51.50
2017-12-04T09:04:39.768Z,51.50
2017-12-04T09:07:05.858Z,51.50
2017-12-04T09:09:33.553Z,51.40
2017-12-04T09:12:01.075Z,51.50
2017-12-04T09:14:29.529Z,51.40
2017-12-04T09:16:57.057Z,51.40
2017-12-04T09:19:25.333Z,51.40
2017-12-04T09:21:53.616Z,51.40
2017-12-04T09:24:21.886Z,51.30
2017-12-04T09:26:50.182Z,51.30
2017-12-04T09:29:17.689Z,51.30
2017-12-04T09:31:45.218Z,51.30
2017-12-04T09:34:12.713Z,51.30
2017-12-04T09:36:41.966Z,51.30
2017-12-04T09:39:09.469Z,51.40
2017-12-04T09:41:36.989Z,51.30
2017-12-04T09:44:04.489Z,51.30
2017-12-04T09:46:32.017Z,51.30
2017-12-04T09:48:59.515Z,51.30
2017-12-04T09:51:27.800Z,51.30
2017-12-04T09:53:56.070Z,51.30
2017-12-04T09:56:24.361Z,51.30
2017-12-04T09:58:51.865Z,51.20
2017-12-04T10:01:22.889Z,51.30
2017-12-04T10:03:50.389Z,51.30
2017-12-04T10:06:18.677Z,51.50
2017-12-04T10:08:46.945Z,51.30
2017-12-04T10:11:15.237Z,51.30
2017-12-04T10:13:42.728Z,51.30
2017-12-04T10:16:10.254Z,51.30
2017-12-04T10:18:37.753Z,51.20
2017-12-04T10:21:05.278Z,51.20
2017-12-04T10:23:32.781Z,51.30
2017-12-04T10:26:00.297Z,51.30
2017-12-04T10:28:27.795Z,51.90
2017-12-04T10:30:55.324Z,51.30
2017-12-04T10:33:22.824Z,51.30
2017-12-04T10:35:50.346Z,51.30
2017-12-04T10:38:17.845Z,51.30
2017-12-04T10:40:46.129Z,51.30
2017-12-04T10:43:14.392Z,51.40
2017-12-04T10:45:42.681Z,51.40
2017-12-04T10:48:10.181Z,51.40
2017-12-04T10:50:37.700Z,51.40
2017-12-04T10:53:06.181Z,51.40
2017-12-04T10:55:33.709Z,51.30
2017-12-04T10:58:01.201Z,51.40
2017-12-04T11:00:28.730Z,51.50
2017-12-04T11:02:56.993Z,51.50
2017-12-04T11:05:24.510Z,51.50
2017-12-04T11:07:52.011Z,51.40
2017-12-04T11:10:19.533Z,51.40
2017-12-04T11:12:47.025Z,51.50
2017-12-04T11:15:14.544Z,51.40
2017-12-04T11:17:42.047Z,51.40
2017-12-04T11:20:10.329Z,51.40
2017-12-04T11:22:38.588Z,51.50
2017-12-04T11:25:09.580Z,51.50
2017-12-04T11:27:37.079Z,51.40
2017-12-04T11:30:04.596Z,51.50
2017-12-04T11:32:32.092Z,51.50
2017-12-04T11:35:01.550Z,51.40
2017-12-04T11:37:29.045Z,51.40
2017-12-04T11:39:56.556Z,51.40
2017-12-04T11:42:24.046Z,51.40
2017-12-04T11:44:51.588Z,51.50
2017-12-04T11:47:19.077Z,51.40
2017-12-04T11:49:46.599Z,51.50
2017-12-04T11:52:14.106Z,51.50
2017-12-04T11:54:42.393Z,51.50
2017-12-04T11:57:10.649Z,51.50
2017-12-04T11:59:38.162Z,51.50
2017-12-04T12:02:05.659Z,51.60
2017-12-04T12:04:33.186Z,51.50
2017-12-04T12:07:00.685Z,51.50
2017-12-04T12:09:28.995Z,51.50
2017-12-04T12:11:56.503Z,51.40
2017-12-04T12:14:24.024Z,51.50
2017-12-04T12:16:51.530Z,51.40
2017-12-04T12:19:21.777Z,51.50
2017-12-04T12:21:49.277Z,51.50
2017-12-04T12:24:16.804Z,51.50
2017-12-04T12:26:44.302Z,51.40
2017-12-04T12:29:11.845Z,51.40
2017-12-04T12:31:39.337Z,51.50
2017-12-04T12:34:07.619Z,51.50
2017-12-04T12:36:35.876Z,51.40
2017-12-04T12:39:03.425Z,51.50
2017-12-04T12:41:30.921Z,51.70
2017-12-04T12:43:58.436Z,51.50
2017-12-04T12:46:25.933Z,51.50
2017-12-04T12:48:53.448Z,51.50
2017-12-04T12:51:20.936Z,51.60
2017-12-04T12:53:49.224Z,51.40
2017-12-04T12:56:16.729Z,51.40
2017-12-04T12:58:44.241Z,51.50
2017-12-04T13:01:12.713Z,51.50
2017-12-04T13:03:41.001Z,51.50
2017-12-04T13:06:08.497Z,51.50
2017-12-04T13:08:37.961Z,51.40
2017-12-04T13:11:05.461Z,51.00
2017-12-04T13:13:33.291Z,51.50
2017-12-04T13:16:01.267Z,51.50
2017-12-04T13:18:29.123Z,51.50
2017-12-04T13:20:57.691Z,51.60
2017-12-04T13:23:25.273Z,51.60
2017-12-04T13:25:52.781Z,51.80
2017-12-04T13:28:21.065Z,51.90
2017-12-04T13:30:49.325Z,52.00
2017-12-04T13:33:29.495Z,51.90
2017-12-04T13:36:09.613Z,51.70
2017-12-04T13:38:37.346Z,51.70
2017-12-04T13:41:05.017Z,51.80
2017-12-04T13:43:32.539Z,51.80
2017-12-04T13:46:02.056Z,51.80
2017-12-04T13:48:29.593Z,51.80
2017-12-04T13:50:57.852Z,51.60
2017-12-04T13:53:26.127Z,51.70
2017-12-04T13:55:54.417Z,51.70
2017-12-04T13:58:22.677Z,51.60
2017-12-04T14:00:50.961Z,51.50
2017-12-04T14:03:19.225Z,51.70
2017-12-04T14:05:47.488Z,51.80
2017-12-04T14:08:15.005Z,51.70
2017-12-04T14:10:42.502Z,51.70
2017-12-04T14:13:10.031Z,51.80
2017-12-04T14:15:38.473Z,51.90
2017-12-04T14:18:05.974Z,51.90
2017-12-04T14:20:33.494Z,51.90
2017-12-04T14:23:00.997Z,52.10
2017-12-04T14:25:28.539Z,52.10
2017-12-04T14:27:56.055Z,51.90
2017-12-04T14:30:23.577Z,51.90
2017-12-04T14:32:51.842Z,51.90
2017-12-04T14:35:19.331Z,51.90
2017-12-04T14:37:47.613Z,52.00
2017-12-04T14:40:15.873Z,51.90
2017-12-04T14:42:44.165Z,51.90
2017-12-04T14:45:12.424Z,51.90
2017-12-04T14:47:40.705Z,51.90
2017-12-04T14:50:08.985Z,51.90
2017-12-04T14:52:37.241Z,51.90
2017-12-04T14:55:04.752Z,51.90
2017-12-04T14:57:32.246Z,52.40
2017-12-04T14:59:59.761Z,51.80
2017-12-04T15:02:27.252Z,51.80
2017-12-04T15:04:56.709Z,51.90
2017-12-04T15:07:24.210Z,51.80
2017-12-04T15:09:51.726Z,51.90
2017-12-04T15:12:20.161Z,51.90
2017-12-04T15:14:48.637Z,51.90
2017-12-04T15:17:16.225Z,51.90
2017-12-04T15:19:45.693Z,51.80
2017-12-04T15:22:13.195Z,51.80
2017-12-04T15:24:40.710Z,51.80
2017-12-04T15:27:08.205Z,51.70
2017-12-04T15:29:35.721Z,51.70
2017-12-04T15:32:03.227Z,51.60
2017-12-04T15:34:30.746Z,51.70
2017-12-04T15:36:58.248Z,51.70
2017-12-04T15:39:25.793Z,51.70
2017-12-04T15:41:54.284Z,51.70
2017-12-04T15:44:21.811Z,51.70
2017-12-04T15:46:50.068Z,51.70
2017-12-04T15:49:17.594Z,51.60
2017-12-04T15:51:45.097Z,52.50
2017-12-04T15:54:15.325Z,51.80
2017-12-04T15:56:43.588Z,51.80
2017-12-04T15:59:11.878Z,51.70
2017-12-04T16:01:40.375Z,51.70
2017-12-04T16:04:07.898Z,51.90
2017-12-04T16:06:36.162Z,52.10
2017-12-04T16:09:03.694Z,52.10
2017-12-04T16:11:31.197Z,52.10
2017-12-04T16:13:59.478Z,52.00
2017-12-04T16:16:26.981Z,52.00
2017-12-04T16:18:54.504Z,52.00
2017-12-04T16:21:21.997Z,52.20
2017-12-04T16:23:49.513Z,52.10
2017-12-04T16:26:17.010Z,52.10
2017-12-04T16:28:44.528Z,52.20
2017-12-04T16:31:12.037Z,52.30
2017-12-04T16:33:39.600Z,52.40
2017-12-04T16:36:07.127Z,52.40
2017-12-04T16:38:34.662Z,52.40
2017-12-04T16:41:02.168Z,52.50
2017-12-04T16:43:31.654Z,52.40
2017-12-04T16:45:59.154Z,52.20
2017-12-04T16:48:27.464Z,52.30
2017-12-04T16:50:54.966Z,52.30
2017-12-04T16:53:22.490Z,52.20
2017-12-04T16:55:50.948Z,52.30
2017-12-04T16:58:18.448Z,52.30
2017-12-04T17:00:45.977Z,51.70
2017-12-04T17:03:13.481Z,51.90
2017-12-04T17:05:41.001Z,52.00
2017-12-04T17:08:08.501Z,52.00
2017-12-04T17:10:36.020Z,52.00
2017-12-04T17:13:03.539Z,52.00
2017-12-04T17:15:31.058Z,51.90
2017-12-04T17:17:59.516Z,51.90
2017-12-04T17:20:27.033Z,51.80
2017-12-04T17:22:54.525Z,51.90
2017-12-04T17:25:23.081Z,52.00
2017-12-04T17:27:50.578Z,52.00
2017-12-04T17:30:18.091Z,52.00
2017-12-04T17:32:45.640Z,52.00
2017-12-04T17:35:13.149Z,52.00
2017-12-04T17:37:40.697Z,52.00
2017-12-04T17:40:08.288Z,52.00
2017-12-04T17:42:36.019Z,52.00
2017-12-04T17:45:04.991Z,52.60
2017-12-04T17:47:32.960Z,52.00
2017-12-04T17:50:01.030Z,52.00
2017-12-04T17:52:30.840Z,52.00
2017-12-04T17:54:59.831Z,52.00
2017-12-04T17:57:28.926Z,52.00
2017-12-04T17:59:56.996Z,52.00
2017-12-04T18:02:24.836Z,52.00
2017-12-04T18:04:52.726Z,52.00
2017-12-04T18:07:21.820Z,52.10
2017-12-04T18:09:49.788Z,52.00
2017-12-04T18:12:17.755Z,52.00
2017-12-04T18:14:45.622Z,52.10
2017-12-04T18:17:13.591Z,52.20
2017-12-04T18:19:42.484Z,52.10
2017-12-04T18:22:10.240Z,52.30
2017-12-04T18:24:37.873Z,52.10
2017-12-04T18:27:05.393Z,52.10
2017-12-04T18:29:32.914Z,52.00
2017-12-04T18:32:00.401Z,52.10
2017-12-04T18:34:27.917Z,52.10
2017-12-04T18:36:55.414Z,52.20
2017-12-04T18:39:22.925Z,52.20
2017-12-04T18:41:50.425Z,52.30
2017-12-04T18:44:17.942Z,52.30
2017-12-04T18:46:45.433Z,52.40
2017-12-04T18:49:13.894Z,52.30
2017-12-04T18:51:41.413Z,52.20
2017-12-04T18:54:09.705Z,52.60
2017-12-04T18:56:37.201Z,52.60
2017-12-04T18:59:05.558Z,52.30
2017-12-04T19:01:33.127Z,52.20
2017-12-04T19:04:00.648Z,52.20
2017-12-04T19:06:28.923Z,52.20
2017-12-04T19:08:57.222Z,52.20
2017-12-04T19:11:24.730Z,52.20
2017-12-04T19:13:52.224Z,52.20
2017-12-04T19:16:19.741Z,52.30
2017-12-04T19:18:47.232Z,52.30
2017-12-04T19:21:16.733Z,52.30
2017-12-04T19:23:44.258Z,52.30
2017-12-04T19:26:11.753Z,52.30
2017-12-04T19:28:39.274Z,52.40
2017-12-04T19:31:06.765Z,52.60
2017-12-04T19:33:34.298Z,52.50
2017-12-04T19:36:02.560Z,52.70
2017-12-04T19:38:30.084Z,52.70
2017-12-04T19:40:57.586Z,52.50
2017-12-04T19:43:25.084Z,52.50
2017-12-04T19:45:52.610Z,52.70
2017-12-04T19:48:20.888Z,52.90
2017-12-04T19:50:49.169Z,52.30
2017-12-04T19:53:16.695Z,52.30
2017-12-04T19:55:44.193Z,52.30
2017-12-04T19:58:11.727Z,52.40
2017-12-04T20:00:40.586Z,52.50
2017-12-04T20:03:08.110Z,52.50
2017-12-04T20:05:35.613Z,52.40
2017-12-04T20:08:03.130Z,52.30
2017-12-04T20:10:30.629Z,52.20
2017-12-04T20:13:00.885Z,52.30
2017-12-04T20:15:28.389Z,52.30
2017-12-04T20:17:55.924Z,52.30
2017-12-04T20:20:23.474Z,52.40
2017-12-04T20:22:52.957Z,52.50
2017-12-04T20:25:20.452Z,52.80
2017-12-04T20:27:47.972Z,52.70
2017-12-04T20:30:15.464Z,52.70
2017-12-04T20:32:42.980Z,52.80
2017-12-04T20:35:11.241Z,52.60
2017-12-04T20:37:39.520Z,52.90
2017-12-04T20:40:07.780Z,52.80
2017-12-04T20:42:35.300Z,52.80
2017-12-04T20:45:02.801Z,52.90
2017-12-04T20:47:31.093Z,53.20
2017-12-04T20:49:59.356Z,52.80
2017-12-04T20:52:27.667Z,52.80
2017-12-04T20:54:56.129Z,52.80
2017-12-04T20:57:23.649Z,52.80
2017-12-04T20:59:51.145Z,52.90
2017-12-04T21:02:18.661Z,52.80
2017-12-04T21:04:46.161Z,52.90
2017-12-04T21:07:14.654Z,52.90
2017-12-04T21:09:53.902Z,53.00
2017-12-04T21:12:21.422Z,53.00
2017-12-04T21:15:01.638Z,53.40
2017-12-04T21:17:35.184Z,53.40
2017-12-04T21:20:05.359Z,53.70
2017-12-04T21:22:32.881Z,53.20
2017-12-04T21:25:00.389Z,54.00
2017-12-04T21:27:28.681Z,53.60
2017-12-04T21:29:56.945Z,53.20
2017-12-04T21:32:25.228Z,53.50
2017-12-04T21:34:53.495Z,53.60
2017-12-04T21:37:21.781Z,54.30
2017-12-04T21:39:50.045Z,54.30
2017-12-04T21:42:18.309Z,54.30
2017-12-04T21:44:45.870Z,54.30
2017-12-04T21:47:13.340Z,54.50
2017-12-04T21:49:42.589Z,54.90
2017-12-04T21:52:10.086Z,54.90
2017-12-04T21:54:38.376Z,54.10
2017-12-04T21:57:06.637Z,53.90
2017-12-04T21:59:34.933Z,53.80
2017-12-04T22:02:02.430Z,53.70
2017-12-04T22:04:29.964Z,53.90
2017-12-04T22:06:59.469Z,54.60
2017-12-04T22:09:26.969Z,54.50
2017-12-04T22:11:54.473Z,54.20
2017-12-04T22:14:22.381Z,54.20
2017-12-04T22:16:50.822Z,53.90
2017-12-04T22:19:18.329Z,53.90
2017-12-04T22:21:45.849Z,53.90
2017-12-04T22:24:13.336Z,53.80
2017-12-04T22:26:40.828Z,53.90
2017-12-04T22:29:09.117Z,53.90
2017-12-04T22:31:36.614Z,53.90
2017-12-04T22:34:06.093Z,53.80
2017-12-04T22:36:33.609Z,53.80
2017-12-04T22:39:01.889Z,53.80
2017-12-04T22:41:30.145Z,53.80
2017-12-04T22:43:57.676Z,53.80
2017-12-04T22:46:25.178Z,53.70
2017-12-04T22:48:53.461Z,53.70
2017-12-04T22:51:21.716Z,53.70
2017-12-04T22:53:50.013Z,53.70
2017-12-04T22:56:17.509Z,53.60
2017-12-04T22:58:45.002Z,53.60
2017-12-04T23:01:13.453Z,53.60
2017-12-04T23:03:41.291Z,53.70
2017-12-04T23:06:09.361Z,53.70
2017-12-04T23:08:38.423Z,53.60
2017-12-04T23:11:06.423Z,53.60
2017-12-04T23:13:34.548Z,53.60
2017-12-04T23:16:03.494Z,53.60
2017-12-04T23:18:31.439Z,53.60
2017-12-04T23:20:59.545Z,53.50
2017-12-04T23:23:28.310Z,53.50
2017-12-04T23:25:56.175Z,53.50
2017-12-04T23:28:23.940Z,53.40
2017-12-04T23:30:51.906Z,53.40
2017-12-04T23:33:20.500Z,53.40
2017-12-04T23:35:48.024Z,53.40
2017-12-04T23:38:15.542Z,53.40
2017-12-04T23:40:43.470Z,53.40
2017-12-04T23:43:11.181Z,53.40
2017-12-04T23:45:39.918Z,53.40
2017-12-04T23:48:07.679Z,53.40
2017-12-04T23:50:35.352Z,53.30
2017-12-04T23:53:03.168Z,53.30
2017-12-04T23:55:31.483Z,53.20
2017-12-04T23:57:58.978Z,53.20
